sensor_id;sensor_type;location;lat;lon;timestamp;pressure;altitude;pressure_sealevel;temperature;humidity
43814;BME280;29669;55.706;37.656;2023-04-28T00:00:00;99412.19;;;13.30;nan
43814;BME280;29669;55.706;37.656;2023-04-28T00:02:31;99401.34;;;13.27;nan
43814;BME280;29669;55.706;37.656;2023-04-28T00:05:01;99403.75;;;13.28;nan
43814;BME280;29669;55.706;37.656;2023-04-28T00:07:30;99399.34;;;13.29;nan
43814;BME280;29669;55.706;37.656;2023-04-28T00:09:58;99399.72;;;13.26;nan
43814;BME280;29669;55.706;37.656;2023-04-28T00:12:26;99402.88;;;13.21;nan
43814;BME280;29669;55.706;37.656;2023-04-28T00:14:54;99393.66;;;13.18;nan
43814;BME280;29669;55.706;37.656;2023-04-28T00:17:21;99401.84;;;13.15;nan
43814;BME280;29669;55.706;37.656;2023-04-28T00:19:49;99395.22;;;13.13;nan
43814;BME280;29669;55.706;37.656;2023-04-28T00:22:17;99391.72;;;13.06;nan
43814;BME280;29669;55.706;37.656;2023-04-28T00:24:45;99389.06;;;12.99;nan
43814;BME280;29669;55.706;37.656;2023-04-28T00:27:13;99392.59;;;12.92;nan
43814;BME280;29669;55.706;37.656;2023-04-28T00:29:41;99393.94;;;12.88;nan
43814;BME280;29669;55.706;37.656;2023-04-28T00:32:09;99390.53;;;12.87;nan
43814;BME280;29669;55.706;37.656;2023-04-28T00:34:37;99383.91;;;12.85;nan
43814;BME280;29669;55.706;37.656;2023-04-28T00:37:05;99384.47;;;12.80;nan
43814;BME280;29669;55.706;37.656;2023-04-28T00:39:33;99379.03;;;12.75;nan
43814;BME280;29669;55.706;37.656;2023-04-28T00:42:00;99378.41;;;12.73;nan
43814;BME280;29669;55.706;37.656;2023-04-28T00:44:29;99386.03;;;12.75;nan
43814;BME280;29669;55.706;37.656;2023-04-28T00:46:57;99376.41;;;12.75;nan
43814;BME280;29669;55.706;37.656;2023-04-28T00:49:25;99379.88;;;12.82;nan
43814;BME280;29669;55.706;37.656;2023-04-28T00:51:54;99387.31;;;12.85;nan
43814;BME280;29669;55.706;37.656;2023-04-28T00:54:21;99372.88;;;12.83;nan
43814;BME280;29669;55.706;37.656;2023-04-28T00:56:50;99368.66;;;12.82;nan
43814;BME280;29669;55.706;37.656;2023-04-28T00:59:30;99383.91;;;12.85;nan
43814;BME280;29669;55.706;37.656;2023-04-28T01:01:59;99380.75;;;12.89;nan
43814;BME280;29669;55.706;37.656;2023-04-28T01:04:28;99381.34;;;12.91;nan
43814;BME280;29669;55.706;37.656;2023-04-28T01:06:59;99379.94;;;12.89;nan
43814;BME280;29669;55.706;37.656;2023-04-28T01:09:27;99369.34;;;12.90;nan
43814;BME280;29669;55.706;37.656;2023-04-28T01:11:56;99381.16;;;12.93;nan
43814;BME280;29669;55.706;37.656;2023-04-28T01:14:50;99389.78;;;12.93;nan
43814;BME280;29669;55.706;37.656;2023-04-28T01:17:18;99390.63;;;12.94;nan
43814;BME280;29669;55.706;37.656;2023-04-28T01:19:46;99385.75;;;12.91;nan
43814;BME280;29669;55.706;37.656;2023-04-28T01:22:14;99383.34;;;12.89;nan
43814;BME280;29669;55.706;37.656;2023-04-28T01:24:43;99384.97;;;12.90;nan
43814;BME280;29669;55.706;37.656;2023-04-28T01:27:13;99390.19;;;12.90;nan
43814;BME280;29669;55.706;37.656;2023-04-28T01:29:41;99386.97;;;12.88;nan
43814;BME280;29669;55.706;37.656;2023-04-28T01:32:09;99399.59;;;12.91;nan
43814;BME280;29669;55.706;37.656;2023-04-28T01:34:38;99398.44;;;12.94;nan
43814;BME280;29669;55.706;37.656;2023-04-28T01:37:06;99395.81;;;12.94;nan
43814;BME280;29669;55.706;37.656;2023-04-28T01:39:36;99403.88;;;12.99;nan
43814;BME280;29669;55.706;37.656;2023-04-28T01:42:04;99386.81;;;12.96;nan
43814;BME280;29669;55.706;37.656;2023-04-28T01:44:33;99398.47;;;13.00;nan
43814;BME280;29669;55.706;37.656;2023-04-28T01:47:01;99395.06;;;13.00;nan
43814;BME280;29669;55.706;37.656;2023-04-28T01:49:29;99391.66;;;12.99;nan
43814;BME280;29669;55.706;37.656;2023-04-28T01:51:57;99397.31;;;13.03;nan
43814;BME280;29669;55.706;37.656;2023-04-28T01:54:24;99391.94;;;13.04;nan
43814;BME280;29669;55.706;37.656;2023-04-28T01:56:54;99392.53;;;13.06;nan
43814;BME280;29669;55.706;37.656;2023-04-28T01:59:22;99392.19;;;13.09;nan
43814;BME280;29669;55.706;37.656;2023-04-28T02:01:50;99387.75;;;13.10;nan
43814;BME280;29669;55.706;37.656;2023-04-28T02:04:18;99381.75;;;13.09;nan
43814;BME280;29669;55.706;37.656;2023-04-28T02:06:46;99379.31;;;13.08;nan
43814;BME280;29669;55.706;37.656;2023-04-28T02:09:14;99385.59;;;13.13;nan
43814;BME280;29669;55.706;37.656;2023-04-28T02:11:41;99384.41;;;13.16;nan
43814;BME280;29669;55.706;37.656;2023-04-28T02:14:09;99376.22;;;13.19;nan
43814;BME280;29669;55.706;37.656;2023-04-28T02:16:57;99378.44;;;13.22;nan
43814;BME280;29669;55.706;37.656;2023-04-28T02:19:26;99377.28;;;13.25;nan
43814;BME280;29669;55.706;37.656;2023-04-28T02:21:53;99378.47;;;13.29;nan
43814;BME280;29669;55.706;37.656;2023-04-28T02:24:21;99380.94;;;13.37;nan
43814;BME280;29669;55.706;37.656;2023-04-28T02:26:49;99389.03;;;13.42;nan
43814;BME280;29669;55.706;37.656;2023-04-28T02:29:17;99371.63;;;13.49;nan
43814;BME280;29669;55.706;37.656;2023-04-28T02:31:45;99378.69;;;13.55;nan
43814;BME280;29669;55.706;37.656;2023-04-28T02:34:13;99380.16;;;13.64;nan
43814;BME280;29669;55.706;37.656;2023-04-28T02:36:41;99387.56;;;13.67;nan
43814;BME280;29669;55.706;37.656;2023-04-28T02:39:09;99387.56;;;13.67;nan
43814;BME280;29669;55.706;37.656;2023-04-28T02:41:37;99401.47;;;13.74;nan
43814;BME280;29669;55.706;37.656;2023-04-28T02:44:05;99401.69;;;13.79;nan
43814;BME280;29669;55.706;37.656;2023-04-28T02:46:33;99397.72;;;13.83;nan
43814;BME280;29669;55.706;37.656;2023-04-28T02:49:01;99395.94;;;13.90;nan
43814;BME280;29669;55.706;37.656;2023-04-28T02:51:29;99399.56;;;13.95;nan
43814;BME280;29669;55.706;37.656;2023-04-28T02:53:57;99399.00;;;14.00;nan
43814;BME280;29669;55.706;37.656;2023-04-28T02:56:25;99409.03;;;14.03;nan
43814;BME280;29669;55.706;37.656;2023-04-28T02:58:53;99405.06;;;14.07;nan
43814;BME280;29669;55.706;37.656;2023-04-28T03:01:21;99400.06;;;14.12;nan
43814;BME280;29669;55.706;37.656;2023-04-28T03:03:49;99401.53;;;14.21;nan
43814;BME280;29669;55.706;37.656;2023-04-28T03:06:17;99399.97;;;14.33;nan
43814;BME280;29669;55.706;37.656;2023-04-28T03:08:45;99389.16;;;14.36;nan
43814;BME280;29669;55.706;37.656;2023-04-28T03:11:12;99404.00;;;14.42;nan
43814;BME280;29669;55.706;37.656;2023-04-28T03:13:40;99412.91;;;14.48;nan
43814;BME280;29669;55.706;37.656;2023-04-28T03:16:08;99398.41;;;14.52;nan
43814;BME280;29669;55.706;37.656;2023-04-28T03:18:36;99403.47;;;14.60;nan
43814;BME280;29669;55.706;37.656;2023-04-28T03:21:05;99408.91;;;14.65;nan
43814;BME280;29669;55.706;37.656;2023-04-28T03:23:33;99419.16;;;14.66;nan
43814;BME280;29669;55.706;37.656;2023-04-28T03:26:01;99424.56;;;14.65;nan
43814;BME280;29669;55.706;37.656;2023-04-28T03:28:29;99427.78;;;14.67;nan
43814;BME280;29669;55.706;37.656;2023-04-28T03:30:58;99420.16;;;14.65;nan
43814;BME280;29669;55.706;37.656;2023-04-28T03:33:26;99417.34;;;14.67;nan
43814;BME280;29669;55.706;37.656;2023-04-28T03:35:54;99429.63;;;14.66;nan
43814;BME280;29669;55.706;37.656;2023-04-28T03:38:22;99435.47;;;14.68;nan
43814;BME280;29669;55.706;37.656;2023-04-28T03:40:51;99435.06;;;14.71;nan
43814;BME280;29669;55.706;37.656;2023-04-28T03:43:27;99424.00;;;14.69;nan
43814;BME280;29669;55.706;37.656;2023-04-28T03:46:08;99418.19;;;14.74;nan
43814;BME280;29669;55.706;37.656;2023-04-28T03:48:36;99427.03;;;14.79;nan
43814;BME280;29669;55.706;37.656;2023-04-28T03:51:04;99428.84;;;14.92;nan
43814;BME280;29669;55.706;37.656;2023-04-28T03:53:32;99437.13;;;15.08;nan
43814;BME280;29669;55.706;37.656;2023-04-28T03:55:59;99438.16;;;15.21;nan
43814;BME280;29669;55.706;37.656;2023-04-28T03:58:28;99442.41;;;15.35;nan
43814;BME280;29669;55.706;37.656;2023-04-28T04:00:56;99431.34;;;15.46;nan
43814;BME280;29669;55.706;37.656;2023-04-28T04:03:23;99436.75;;;15.64;nan
43814;BME280;29669;55.706;37.656;2023-04-28T04:05:55;99440.97;;;15.78;nan
43814;BME280;29669;55.706;37.656;2023-04-28T04:08:23;99440.34;;;15.89;nan
43814;BME280;29669;55.706;37.656;2023-04-28T04:10:52;99445.97;;;15.99;nan
43814;BME280;29669;55.706;37.656;2023-04-28T04:13:21;99449.34;;;16.13;nan
43814;BME280;29669;55.706;37.656;2023-04-28T04:15:49;99434.44;;;16.20;nan
43814;BME280;29669;55.706;37.656;2023-04-28T04:18:21;99443.66;;;16.22;nan
43814;BME280;29669;55.706;37.656;2023-04-28T04:21:18;99439.03;;;16.24;nan
43814;BME280;29669;55.706;37.656;2023-04-28T04:23:47;99435.97;;;16.34;nan
43814;BME280;29669;55.706;37.656;2023-04-28T04:26:15;99430.13;;;16.38;nan
43814;BME280;29669;55.706;37.656;2023-04-28T04:28:43;99440.16;;;16.54;nan
43814;BME280;29669;55.706;37.656;2023-04-28T04:31:11;99438.91;;;16.63;nan
43814;BME280;29669;55.706;37.656;2023-04-28T04:33:39;99452.94;;;16.75;nan
43814;BME280;29669;55.706;37.656;2023-04-28T04:36:07;99454.19;;;16.73;nan
43814;BME280;29669;55.706;37.656;2023-04-28T04:38:35;99456.38;;;16.76;nan
43814;BME280;29669;55.706;37.656;2023-04-28T04:41:14;99450.53;;;16.80;nan
43814;BME280;29669;55.706;37.656;2023-04-28T04:43:43;99454.13;;;16.86;nan
43814;BME280;29669;55.706;37.656;2023-04-28T04:46:11;99460.72;;;16.95;nan
43814;BME280;29669;55.706;37.656;2023-04-28T04:48:38;99464.16;;;16.96;nan
43814;BME280;29669;55.706;37.656;2023-04-28T04:51:06;99454.22;;;16.98;nan
43814;BME280;29669;55.706;37.656;2023-04-28T04:53:34;99467.53;;;17.03;nan
43814;BME280;29669;55.706;37.656;2023-04-28T04:56:02;99452.31;;;17.11;nan
43814;BME280;29669;55.706;37.656;2023-04-28T04:58:32;99475.22;;;17.29;nan
43814;BME280;29669;55.706;37.656;2023-04-28T05:01:29;99475.22;;;17.29;nan
43814;BME280;29669;55.706;37.656;2023-04-28T05:03:57;99477.19;;;17.33;nan
43814;BME280;29669;55.706;37.656;2023-04-28T05:06:25;99473.97;;;17.31;nan
43814;BME280;29669;55.706;37.656;2023-04-28T05:08:53;99470.56;;;17.31;nan
43814;BME280;29669;55.706;37.656;2023-04-28T05:11:23;99470.34;;;17.32;nan
43814;BME280;29669;55.706;37.656;2023-04-28T05:13:51;99476.31;;;17.39;nan
43814;BME280;29669;55.706;37.656;2023-04-28T05:16:19;99477.38;;;17.63;nan
43814;BME280;29669;55.706;37.656;2023-04-28T05:19:01;99478.81;;;17.83;nan
43814;BME280;29669;55.706;37.656;2023-04-28T05:21:29;99473.03;;;18.00;nan
43814;BME280;29669;55.706;37.656;2023-04-28T05:23:58;99479.59;;;18.09;nan
43814;BME280;29669;55.706;37.656;2023-04-28T05:26:26;99488.06;;;18.11;nan
43814;BME280;29669;55.706;37.656;2023-04-28T05:28:58;99477.19;;;18.07;nan
43814;BME280;29669;55.706;37.656;2023-04-28T05:31:26;99478.19;;;18.06;nan
43814;BME280;29669;55.706;37.656;2023-04-28T05:33:54;99485.78;;;18.14;nan
43814;BME280;29669;55.706;37.656;2023-04-28T05:36:23;99474.19;;;18.22;nan
43814;BME280;29669;55.706;37.656;2023-04-28T05:38:50;99488.13;;;18.40;nan
43814;BME280;29669;55.706;37.656;2023-04-28T05:41:19;99483.50;;;18.42;nan
43814;BME280;29669;55.706;37.656;2023-04-28T05:43:47;99476.53;;;18.48;nan
43814;BME280;29669;55.706;37.656;2023-04-28T05:46:18;99473.09;;;18.47;nan
43814;BME280;29669;55.706;37.656;2023-04-28T05:48:58;99479.69;;;18.56;nan
43814;BME280;29669;55.706;37.656;2023-04-28T05:51:28;99483.97;;;18.51;nan
43814;BME280;29669;55.706;37.656;2023-04-28T05:53:55;99485.66;;;18.45;nan
43814;BME280;29669;55.706;37.656;2023-04-28T05:56:26;99481.53;;;18.86;nan
43814;BME280;29669;55.706;37.656;2023-04-28T05:58:55;99483.38;;;19.26;nan
43814;BME280;29669;55.706;37.656;2023-04-28T06:01:23;99484.00;;;19.51;nan
43814;BME280;29669;55.706;37.656;2023-04-28T06:03:51;99486.09;;;19.61;nan
43814;BME280;29669;55.706;37.656;2023-04-28T06:06:23;99476.13;;;19.63;nan
43814;BME280;29669;55.706;37.656;2023-04-28T06:08:52;99481.72;;;19.66;nan
43814;BME280;29669;55.706;37.656;2023-04-28T06:11:20;99476.47;;;19.66;nan
43814;BME280;29669;55.706;37.656;2023-04-28T06:13:49;99478.66;;;19.81;nan
43814;BME280;29669;55.706;37.656;2023-04-28T06:16:18;99469.47;;;19.95;nan
43814;BME280;29669;55.706;37.656;2023-04-28T06:18:46;99479.69;;;20.15;nan
43814;BME280;29669;55.706;37.656;2023-04-28T06:21:17;99472.94;;;20.30;nan
43814;BME280;29669;55.706;37.656;2023-04-28T06:23:46;99460.31;;;20.32;nan
43814;BME280;29669;55.706;37.656;2023-04-28T06:26:15;99476.69;;;20.34;nan
43814;BME280;29669;55.706;37.656;2023-04-28T06:28:44;99476.25;;;20.26;nan
43814;BME280;29669;55.706;37.656;2023-04-28T06:31:13;99479.34;;;20.23;nan
43814;BME280;29669;55.706;37.656;2023-04-28T06:33:40;99473.34;;;20.16;nan
43814;BME280;29669;55.706;37.656;2023-04-28T06:36:09;99482.31;;;20.03;nan
43814;BME280;29669;55.706;37.656;2023-04-28T06:38:40;99479.09;;;19.78;nan
43814;BME280;29669;55.706;37.656;2023-04-28T06:41:09;99487.34;;;19.47;nan
43814;BME280;29669;55.706;37.656;2023-04-28T06:43:39;99476.72;;;19.24;nan
43814;BME280;29669;55.706;37.656;2023-04-28T06:46:11;99475.09;;;19.23;nan
43814;BME280;29669;55.706;37.656;2023-04-28T06:48:39;99477.03;;;19.34;nan
43814;BME280;29669;55.706;37.656;2023-04-28T06:51:07;99483.66;;;19.48;nan
43814;BME280;29669;55.706;37.656;2023-04-28T06:53:36;99480.72;;;19.56;nan
43814;BME280;29669;55.706;37.656;2023-04-28T06:56:07;99488.72;;;19.61;nan
43814;BME280;29669;55.706;37.656;2023-04-28T06:58:37;99481.63;;;19.61;nan
43814;BME280;29669;55.706;37.656;2023-04-28T07:01:05;99476.13;;;19.63;nan
43814;BME280;29669;55.706;37.656;2023-04-28T07:03:33;99479.25;;;19.72;nan
43814;BME280;29669;55.706;37.656;2023-04-28T07:06:01;99471.69;;;19.87;nan
43814;BME280;29669;55.706;37.656;2023-04-28T07:08:30;99481.84;;;20.06;nan
43814;BME280;29669;55.706;37.656;2023-04-28T07:10:58;99480.94;;;20.12;nan
43814;BME280;29669;55.706;37.656;2023-04-28T07:13:25;99477.72;;;19.99;nan
43814;BME280;29669;55.706;37.656;2023-04-28T07:15:53;99497.22;;;19.86;nan
43814;BME280;29669;55.706;37.656;2023-04-28T07:18:21;99484.03;;;19.86;nan
43814;BME280;29669;55.706;37.656;2023-04-28T07:20:49;99492.53;;;19.88;nan
43814;BME280;29669;55.706;37.656;2023-04-28T07:23:18;99483.81;;;19.88;nan
43814;BME280;29669;55.706;37.656;2023-04-28T07:25:46;99487.56;;;19.57;nan
43814;BME280;29669;55.706;37.656;2023-04-28T07:28:13;99492.88;;;19.27;nan
43814;BME280;29669;55.706;37.656;2023-04-28T07:30:41;99494.56;;;19.22;nan
43814;BME280;29669;55.706;37.656;2023-04-28T07:33:09;99487.59;;;19.27;nan
43814;BME280;29669;55.706;37.656;2023-04-28T07:35:37;99493.59;;;19.34;nan
43814;BME280;29669;55.706;37.656;2023-04-28T07:38:04;99496.97;;;19.53;nan
43814;BME280;29669;55.706;37.656;2023-04-28T07:40:32;99500.41;;;19.65;nan
43814;BME280;29669;55.706;37.656;2023-04-28T07:43:00;99502.72;;;19.73;nan
43814;BME280;29669;55.706;37.656;2023-04-28T07:45:28;99498.00;;;19.75;nan
43814;BME280;29669;55.706;37.656;2023-04-28T07:47:56;99500.75;;;19.80;nan
43814;BME280;29669;55.706;37.656;2023-04-28T07:50:24;99502.25;;;19.99;nan
43814;BME280;29669;55.706;37.656;2023-04-28T07:52:51;99496.50;;;20.37;nan
43814;BME280;29669;55.706;37.656;2023-04-28T07:55:19;99488.84;;;21.03;nan
43814;BME280;29669;55.706;37.656;2023-04-28T07:57:47;99499.72;;;21.51;nan
43814;BME280;29669;55.706;37.656;2023-04-28T08:00:16;99497.38;;;22.05;nan
43814;BME280;29669;55.706;37.656;2023-04-28T08:02:44;99491.34;;;22.48;nan
43814;BME280;29669;55.706;37.656;2023-04-28T08:05:12;99488.38;;;22.22;nan
43814;BME280;29669;55.706;37.656;2023-04-28T08:07:40;99494.75;;;21.88;nan
43814;BME280;29669;55.706;37.656;2023-04-28T08:10:09;99496.91;;;21.58;nan
43814;BME280;29669;55.706;37.656;2023-04-28T08:12:38;99499.31;;;21.43;nan
43814;BME280;29669;55.706;37.656;2023-04-28T08:15:08;99502.25;;;21.13;nan
43814;BME280;29669;55.706;37.656;2023-04-28T08:17:36;99499.53;;;20.97;nan
43814;BME280;29669;55.706;37.656;2023-04-28T08:20:05;99497.69;;;20.69;nan
43814;BME280;29669;55.706;37.656;2023-04-28T08:22:33;99488.25;;;20.33;nan
43814;BME280;29669;55.706;37.656;2023-04-28T08:25:02;99496.16;;;19.87;nan
43814;BME280;29669;55.706;37.656;2023-04-28T08:27:30;99502.41;;;19.40;nan
43814;BME280;29669;55.706;37.656;2023-04-28T08:29:59;99503.53;;;19.03;nan
43814;BME280;29669;55.706;37.656;2023-04-28T08:32:27;99502.84;;;18.77;nan
43814;BME280;29669;55.706;37.656;2023-04-28T08:34:55;99503.38;;;18.68;nan
43814;BME280;29669;55.706;37.656;2023-04-28T08:37:23;99503.78;;;18.83;nan
43814;BME280;29669;55.706;37.656;2023-04-28T08:39:51;99503.50;;;18.91;nan
43814;BME280;29669;55.706;37.656;2023-04-28T08:42:32;99497.00;;;18.94;nan
43814;BME280;29669;55.706;37.656;2023-04-28T08:45:02;99508.16;;;18.89;nan
43814;BME280;29669;55.706;37.656;2023-04-28T08:47:36;99515.72;;;18.86;nan
43814;BME280;29669;55.706;37.656;2023-04-28T08:50:13;99507.91;;;18.79;nan
43814;BME280;29669;55.706;37.656;2023-04-28T08:52:41;99513.06;;;18.86;nan
43814;BME280;29669;55.706;37.656;2023-04-28T08:55:10;99501.97;;;18.84;nan
43814;BME280;29669;55.706;37.656;2023-04-28T08:57:42;99510.44;;;18.86;nan
43814;BME280;29669;55.706;37.656;2023-04-28T09:00:11;99515.13;;;18.84;nan
43814;BME280;29669;55.706;37.656;2023-04-28T09:02:39;99514.88;;;18.73;nan
43814;BME280;29669;55.706;37.656;2023-04-28T09:05:10;99506.63;;;18.52;nan
43814;BME280;29669;55.706;37.656;2023-04-28T09:07:38;99512.41;;;18.42;nan
43814;BME280;29669;55.706;37.656;2023-04-28T09:12:51;99513.41;;;18.41;nan
43814;BME280;29669;55.706;37.656;2023-04-28T09:18:05;99509.22;;;18.88;nan
43814;BME280;29669;55.706;37.656;2023-04-28T09:20:35;99505.00;;;19.28;nan
43814;BME280;29669;55.706;37.656;2023-04-28T09:23:19;99508.53;;;19.75;nan
43814;BME280;29669;55.706;37.656;2023-04-28T09:26:06;99501.56;;;20.15;nan
43814;BME280;29669;55.706;37.656;2023-04-28T09:28:34;99518.41;;;20.26;nan
43814;BME280;29669;55.706;37.656;2023-04-28T09:31:02;99510.81;;;20.41;nan
43814;BME280;29669;55.706;37.656;2023-04-28T09:33:30;99509.75;;;20.53;nan
43814;BME280;29669;55.706;37.656;2023-04-28T09:35:58;99500.00;;;20.66;nan
43814;BME280;29669;55.706;37.656;2023-04-28T09:38:26;99506.09;;;21.22;nan
43814;BME280;29669;55.706;37.656;2023-04-28T09:40:59;99490.91;;;21.79;nan
43814;BME280;29669;55.706;37.656;2023-04-28T09:45:56;99489.31;;;22.55;nan
43814;BME280;29669;55.706;37.656;2023-04-28T09:48:35;99487.78;;;22.59;nan
43814;BME280;29669;55.706;37.656;2023-04-28T09:51:06;99496.84;;;22.24;nan
43814;BME280;29669;55.706;37.656;2023-04-28T09:53:35;99496.69;;;21.76;nan
43814;BME280;29669;55.706;37.656;2023-04-28T09:56:03;99506.59;;;21.36;nan
43814;BME280;29669;55.706;37.656;2023-04-28T09:58:39;99495.41;;;21.01;nan
43814;BME280;29669;55.706;37.656;2023-04-28T10:01:08;99494.34;;;20.74;nan
43814;BME280;29669;55.706;37.656;2023-04-28T10:03:44;99496.56;;;20.53;nan
43814;BME280;29669;55.706;37.656;2023-04-28T10:06:16;99498.72;;;20.28;nan
43814;BME280;29669;55.706;37.656;2023-04-28T10:08:45;99506.13;;;20.08;nan
43814;BME280;29669;55.706;37.656;2023-04-28T10:11:15;99504.97;;;20.04;nan
43814;BME280;29669;55.706;37.656;2023-04-28T10:13:43;99502.34;;;20.16;nan
43814;BME280;29669;55.706;37.656;2023-04-28T10:16:11;99512.66;;;20.40;nan
43814;BME280;29669;55.706;37.656;2023-04-28T10:18:41;99511.88;;;20.28;nan
43814;BME280;29669;55.706;37.656;2023-04-28T10:21:11;99516.69;;;20.31;nan
43814;BME280;29669;55.706;37.656;2023-04-28T10:24:07;99508.25;;;20.57;nan
43814;BME280;29669;55.706;37.656;2023-04-28T10:27:05;99512.47;;;21.10;nan
43814;BME280;29669;55.706;37.656;2023-04-28T10:29:34;99500.94;;;21.44;nan
43814;BME280;29669;55.706;37.656;2023-04-28T10:34:43;99500.53;;;21.85;nan
43814;BME280;29669;55.706;37.656;2023-04-28T10:37:11;99499.91;;;22.16;nan
43814;BME280;29669;55.706;37.656;2023-04-28T10:40:32;99509.69;;;22.76;47.48
43814;BME280;29669;55.706;37.656;2023-04-28T10:43:03;99498.38;;;23.07;46.92
43814;BME280;29669;55.706;37.656;2023-04-28T10:46:17;99501.66;;;23.19;45.97
43814;BME280;29669;55.706;37.656;2023-04-28T10:56:23;99508.81;;;22.92;46.39
43814;BME280;29669;55.706;37.656;2023-04-28T10:58:58;99505.97;;;22.55;46.92
43814;BME280;29669;55.706;37.656;2023-04-28T11:01:27;99489.34;;;22.16;47.58
43814;BME280;29669;55.706;37.656;2023-04-28T11:04:04;99499.97;;;21.83;47.82
43814;BME280;29669;55.706;37.656;2023-04-28T11:06:35;99504.03;;;21.41;48.36
43814;BME280;29669;55.706;37.656;2023-04-28T11:17:04;99535.75;;;19.46;50.75
43814;BME280;29669;55.706;37.656;2023-04-28T11:19:34;99546.22;;;19.05;51.50
43814;BME280;29669;55.706;37.656;2023-04-28T11:22:05;99540.78;;;18.70;51.94
43814;BME280;29669;55.706;37.656;2023-04-28T11:24:56;99534.84;;;18.20;52.55
43814;BME280;29669;55.706;37.656;2023-04-28T11:27:37;99543.34;;;17.73;53.79
43814;BME280;29669;55.706;37.656;2023-04-28T11:30:19;99550.53;;;17.53;54.63
43814;BME280;29669;55.706;37.656;2023-04-28T11:32:49;99536.03;;;17.50;54.92
43814;BME280;29669;55.706;37.656;2023-04-28T11:35:20;99541.97;;;17.64;55.04
43814;BME280;29669;55.706;37.656;2023-04-28T11:38:00;99541.31;;;17.75;55.35
43814;BME280;29669;55.706;37.656;2023-04-28T11:40:37;99540.91;;;17.96;55.12
43814;BME280;29669;55.706;37.656;2023-04-28T11:43:05;99539.78;;;18.28;54.73
43814;BME280;29669;55.706;37.656;2023-04-28T11:45:34;99531.81;;;18.59;54.23
43814;BME280;29669;55.706;37.656;2023-04-28T11:48:19;99529.72;;;18.98;53.82
43814;BME280;29669;55.706;37.656;2023-04-28T11:50:48;99528.13;;;19.26;53.20
43814;BME280;29669;55.706;37.656;2023-04-28T11:53:15;99526.91;;;19.40;53.13
43814;BME280;29669;55.706;37.656;2023-04-28T11:55:43;99526.13;;;19.51;52.88
43814;BME280;29669;55.706;37.656;2023-04-28T11:58:18;99527.09;;;19.80;52.54
43814;BME280;29669;55.706;37.656;2023-04-28T12:01:10;99524.00;;;20.06;52.15
43814;BME280;29669;55.706;37.656;2023-04-28T12:03:44;99514.50;;;20.17;51.64
43814;BME280;29669;55.706;37.656;2023-04-28T12:06:17;99514.41;;;20.23;51.58
43814;BME280;29669;55.706;37.656;2023-04-28T12:08:45;99512.09;;;20.15;51.45
43814;BME280;29669;55.706;37.656;2023-04-28T12:13:43;99519.06;;;19.63;nan
43814;BME280;29669;55.706;37.656;2023-04-28T12:16:13;99516.50;;;19.34;nan
43814;BME280;29669;55.706;37.656;2023-04-28T12:18:57;99501.88;;;19.20;nan
43814;BME280;29669;55.706;37.656;2023-04-28T12:21:30;99504.47;;;19.08;nan
43814;BME280;29669;55.706;37.656;2023-04-28T12:23:59;99505.50;;;18.77;nan
43814;BME280;29669;55.706;37.656;2023-04-28T12:26:27;99505.66;;;18.64;nan
43814;BME280;29669;55.706;37.656;2023-04-28T12:28:55;99513.34;;;18.48;nan
43814;BME280;29669;55.706;37.656;2023-04-28T12:31:23;99512.28;;;18.31;nan
43814;BME280;29669;55.706;37.656;2023-04-28T12:33:50;99511.56;;;18.24;nan
43814;BME280;29669;55.706;37.656;2023-04-28T12:36:18;99512.78;;;18.21;nan
43814;BME280;29669;55.706;37.656;2023-04-28T12:38:47;99508.25;;;18.28;nan
43814;BME280;29669;55.706;37.656;2023-04-28T12:41:15;99517.81;;;18.23;nan
43814;BME280;29669;55.706;37.656;2023-04-28T12:43:43;99520.28;;;18.00;nan
43814;BME280;29669;55.706;37.656;2023-04-28T12:46:11;99520.97;;;17.64;nan
43814;BME280;29669;55.706;37.656;2023-04-28T12:48:41;99522.66;;;17.21;nan
43814;BME280;29669;55.706;37.656;2023-04-28T12:51:09;99525.06;;;16.84;nan
43814;BME280;29669;55.706;37.656;2023-04-28T12:53:36;99529.66;;;16.51;nan
43814;BME280;29669;55.706;37.656;2023-04-28T12:56:04;99531.28;;;16.26;nan
43814;BME280;29669;55.706;37.656;2023-04-28T12:58:32;99533.13;;;16.13;nan
43814;BME280;29669;55.706;37.656;2023-04-28T13:01:06;99539.19;;;15.93;nan
43814;BME280;29669;55.706;37.656;2023-04-28T13:03:37;99524.13;;;15.76;nan
43814;BME280;29669;55.706;37.656;2023-04-28T13:06:06;99534.75;;;15.61;nan
43814;BME280;29669;55.706;37.656;2023-04-28T13:08:34;99530.94;;;15.51;nan
43814;BME280;29669;55.706;37.656;2023-04-28T13:11:02;99532.56;;;15.52;nan
43814;BME280;29669;55.706;37.656;2023-04-28T13:13:45;99534.19;;;15.59;nan
43814;BME280;29669;55.706;37.656;2023-04-28T13:16:13;99534.56;;;15.82;nan
43814;BME280;29669;55.706;37.656;2023-04-28T13:18:41;99524.66;;;16.11;nan
43814;BME280;29669;55.706;37.656;2023-04-28T13:21:08;99525.47;;;16.11;nan
43814;BME280;29669;55.706;37.656;2023-04-28T13:23:36;99523.50;;;16.00;nan
43814;BME280;29669;55.706;37.656;2023-04-28T13:26:04;99529.50;;;16.07;nan
43814;BME280;29669;55.706;37.656;2023-04-28T13:28:31;99532.94;;;16.14;nan
43814;BME280;29669;55.706;37.656;2023-04-28T13:30:59;99537.75;;;16.17;nan
43814;BME280;29669;55.706;37.656;2023-04-28T13:33:27;99531.94;;;16.09;nan
43814;BME280;29669;55.706;37.656;2023-04-28T13:36:00;99539.38;;;16.05;nan
43814;BME280;29669;55.706;37.656;2023-04-28T13:38:28;99549.47;;;15.95;nan
43814;BME280;29669;55.706;37.656;2023-04-28T13:40:56;99551.91;;;15.83;nan
43814;BME280;29669;55.706;37.656;2023-04-28T13:43:24;99558.53;;;15.73;nan
43814;BME280;29669;55.706;37.656;2023-04-28T13:45:52;99563.97;;;15.52;nan
43814;BME280;29669;55.706;37.656;2023-04-28T13:48:20;99564.69;;;15.33;nan
43814;BME280;29669;55.706;37.656;2023-04-28T13:50:47;99559.59;;;15.18;nan
43814;BME280;29669;55.706;37.656;2023-04-28T13:53:16;99557.00;;;15.12;nan